createdAt,value
2018-08-18T00:02:26.259Z,4.27
2018-08-18T00:04:54.888Z,5.90
2018-08-18T00:07:24.164Z,5.87
2018-08-18T00:09:52.810Z,7.77
2018-08-18T00:12:26.636Z,7.57
2018-08-18T00:14:55.365Z,8.17
2018-08-18T00:17:23.849Z,6.60
2018-08-18T00:19:54.077Z,7.17
2018-08-18T00:22:22.608Z,6.13
2018-08-18T00:25:02.281Z,6.37
2018-08-18T00:27:30.744Z,8.90
2018-08-18T00:30:04.843Z,6.67
2018-08-18T00:32:33.317Z,10.27
2018-08-18T00:35:01.759Z,9.33
2018-08-18T00:37:30.245Z,11.47
2018-08-18T00:39:58.685Z,8.03
2018-08-18T00:42:27.145Z,6.90
2018-08-18T00:44:55.660Z,7.23
2018-08-18T00:47:24.130Z,8.07
2018-08-18T00:49:52.597Z,7.83
2018-08-18T00:52:21.073Z,7.60
2018-08-18T00:54:49.530Z,7.83
2018-08-18T00:57:28.508Z,9.40
2018-08-18T00:59:57.657Z,10.00
2018-08-18T01:02:26.612Z,8.97
2018-08-18T01:04:57.359Z,8.73
2018-08-18T01:07:27.582Z,9.33
2018-08-18T01:09:56.412Z,7.73
2018-08-18T01:12:25.631Z,9.87
2018-08-18T01:14:54.443Z,9.13
2018-08-18T01:17:23.280Z,8.67
2018-08-18T01:19:55.296Z,9.90
2018-08-18T01:22:23.772Z,8.17
2018-08-18T01:24:52.752Z,11.07
2018-08-18T01:27:21.462Z,9.77
2018-08-18T01:29:55.122Z,8.70
2018-08-18T01:32:23.849Z,8.13
2018-08-18T01:34:52.928Z,7.77
2018-08-18T01:37:21.728Z,11.70
2018-08-18T01:39:51.753Z,10.90
2018-08-18T01:42:20.216Z,7.47
2018-08-18T01:44:49.875Z,7.30
2018-08-18T01:47:18.512Z,11.27
2018-08-18T01:49:46.924Z,9.70
2018-08-18T01:52:20.577Z,9.00
2018-08-18T01:54:49.003Z,9.13
2018-08-18T01:57:18.769Z,8.27
2018-08-18T01:59:47.670Z,8.00
2018-08-18T02:02:20.168Z,8.63
2018-08-18T02:04:49.216Z,7.40
2018-08-18T02:07:24.378Z,13.80
2018-08-18T02:09:53.064Z,8.27
2018-08-18T02:12:22.444Z,6.87
2018-08-18T02:14:50.972Z,7.47
2018-08-18T02:17:26.476Z,9.40
2018-08-18T02:19:55.467Z,8.80
2018-08-18T02:22:24.972Z,7.53
2018-08-18T02:24:53.416Z,11.63
2018-08-18T02:27:21.908Z,10.23
2018-08-18T02:30:02.305Z,7.50
2018-08-18T02:32:32.110Z,11.07
2018-08-18T02:35:00.573Z,9.77
2018-08-18T02:37:29.788Z,7.40
2018-08-18T02:39:58.267Z,9.93
2018-08-18T02:42:26.712Z,7.77
2018-08-18T02:44:55.229Z,10.50
2018-08-18T02:47:23.932Z,10.80
2018-08-18T02:49:53.536Z,11.27
2018-08-18T02:52:28.364Z,8.37
2018-08-18T02:55:06.265Z,7.93
2018-08-18T02:57:39.120Z,10.83
2018-08-18T03:00:10.235Z,8.93
2018-08-18T03:02:38.696Z,7.90
2018-08-18T03:05:07.248Z,9.60
2018-08-18T03:07:55.443Z,7.80
2018-08-18T03:10:24.652Z,8.53
2018-08-18T03:12:59.304Z,9.53
2018-08-18T03:16:10.263Z,8.17
2018-08-18T03:18:47.932Z,8.10
2018-08-18T03:21:16.928Z,12.17
2018-08-18T03:23:57.421Z,10.17
2018-08-18T03:26:31.933Z,11.93
2018-08-18T03:29:00.540Z,9.53
2018-08-18T03:31:28.933Z,9.20
2018-08-18T03:33:57.377Z,9.83
2018-08-18T03:36:32.303Z,7.60
2018-08-18T03:39:00.730Z,8.93
2018-08-18T03:41:30.176Z,8.10
2018-08-18T03:43:59.007Z,10.83
2018-08-18T03:46:27.465Z,11.83
2018-08-18T03:48:55.912Z,11.20
2018-08-18T03:51:30.244Z,10.43
2018-08-18T03:53:58.955Z,11.37
2018-08-18T03:56:28.377Z,9.13
2018-08-18T03:58:57.753Z,10.07
2018-08-18T04:01:53.372Z,9.67
2018-08-18T04:04:23.153Z,8.63
2018-08-18T04:06:53.984Z,10.63
2018-08-18T04:09:24.858Z,11.87
2018-08-18T04:11:53.738Z,8.50
2018-08-18T04:14:43.721Z,11.77
2018-08-18T04:17:24.165Z,7.53
2018-08-18T04:19:52.966Z,8.80
2018-08-18T04:22:22.963Z,10.10
2018-08-18T04:24:51.463Z,8.47
2018-08-18T04:27:45.118Z,10.57
2018-08-18T04:30:18.296Z,9.37
2018-08-18T04:32:58.632Z,9.50
2018-08-18T04:35:28.155Z,10.50
2018-08-18T04:37:57.566Z,9.43
2018-08-18T04:40:26.549Z,10.47
2018-08-18T04:42:58.428Z,9.20
2018-08-18T04:45:26.961Z,11.73
2018-08-18T04:47:55.441Z,8.03
2018-08-18T04:50:23.904Z,10.50
2018-08-18T04:52:54.077Z,9.67
2018-08-18T04:55:22.660Z,12.87
2018-08-18T04:57:51.463Z,9.73
2018-08-18T05:00:20.177Z,10.93
2018-08-18T05:02:57.108Z,9.67
2018-08-18T05:05:27.725Z,10.17
2018-08-18T05:07:58.289Z,10.20
2018-08-18T05:10:27.501Z,8.67
2018-08-18T05:12:56.052Z,7.60
2018-08-18T05:15:24.508Z,9.90
2018-08-18T05:17:52.982Z,7.97
2018-08-18T05:20:24.457Z,10.33
2018-08-18T05:22:52.900Z,8.73
2018-08-18T05:25:28.560Z,6.87
2018-08-18T05:27:57.960Z,9.07
2018-08-18T05:30:26.437Z,9.23
2018-08-18T05:32:54.948Z,9.90
2018-08-18T05:35:23.426Z,10.67
2018-08-18T05:37:51.915Z,9.50
2018-08-18T05:40:20.447Z,7.20
2018-08-18T05:42:48.904Z,8.67
2018-08-18T05:45:26.039Z,7.80
2018-08-18T05:47:55.039Z,7.77
2018-08-18T05:50:27.008Z,8.30
2018-08-18T05:52:58.388Z,7.87
2018-08-18T05:55:27.117Z,7.50
2018-08-18T05:57:55.596Z,9.97
2018-08-18T06:00:25.260Z,6.83
2018-08-18T06:04:12.660Z,10.33
2018-08-18T06:06:41.829Z,7.23
2018-08-18T06:09:12.682Z,10.93
2018-08-18T06:11:41.222Z,8.87
2018-08-18T06:14:11.104Z,11.87
2018-08-18T06:16:40.384Z,7.70
2018-08-18T06:19:08.960Z,6.53
2018-08-18T06:21:37.437Z,8.70
2018-08-18T06:24:06.006Z,12.40
2018-08-18T06:26:34.520Z,7.07
2018-08-18T06:29:03.017Z,7.50
2018-08-18T06:31:31.493Z,6.53
2018-08-18T06:33:59.957Z,5.97
2018-08-18T06:36:28.481Z,6.27
2018-08-18T06:38:56.928Z,9.53
2018-08-18T06:41:25.485Z,7.07
2018-08-18T06:43:53.857Z,8.20
2018-08-18T06:46:22.332Z,6.00
2018-08-18T06:48:50.812Z,5.73
2018-08-18T06:51:19.252Z,5.37
2018-08-18T06:53:48.844Z,6.30
2018-08-18T06:56:17.284Z,6.50
2018-08-18T06:58:45.713Z,6.70
2018-08-18T07:01:14.179Z,9.43
2018-08-18T07:03:46.128Z,6.97
2018-08-18T07:06:16.560Z,5.87
2018-08-18T07:08:50.373Z,6.93
2018-08-18T07:11:18.854Z,7.80
2018-08-18T07:13:48.028Z,8.60
2018-08-18T07:16:16.497Z,6.70
2018-08-18T07:18:44.928Z,7.37
2018-08-18T07:21:13.974Z,7.23
2018-08-18T07:23:42.408Z,7.40
2018-08-18T07:26:10.853Z,7.73
2018-08-18T07:28:39.381Z,5.03
2018-08-18T07:31:07.792Z,6.47
2018-08-18T07:33:36.223Z,4.53
2018-08-18T07:36:04.682Z,5.07
2018-08-18T07:38:33.103Z,5.20
2018-08-18T07:41:01.613Z,6.40
2018-08-18T07:43:31.564Z,7.83
2018-08-18T07:46:05.957Z,4.93
2018-08-18T07:48:37.424Z,4.57
2018-08-18T07:51:05.914Z,5.23
2018-08-18T07:53:34.428Z,4.30
2018-08-18T07:56:02.823Z,4.30
2018-08-18T07:58:31.255Z,4.60
2018-08-18T08:01:00.316Z,5.03
2018-08-18T08:03:28.784Z,7.67
2018-08-18T08:05:57.253Z,6.60
2018-08-18T08:08:34.006Z,3.90
2018-08-18T08:11:07.844Z,5.80
2018-08-18T08:13:36.285Z,8.03
2018-08-18T08:16:04.733Z,7.07
2018-08-18T08:18:33.232Z,6.07
2018-08-18T08:21:01.697Z,4.33
2018-08-18T08:23:30.246Z,4.73
2018-08-18T08:26:00.378Z,4.90
2018-08-18T08:28:28.848Z,4.23
2018-08-18T08:30:57.328Z,5.10
2018-08-18T08:33:34.412Z,3.70
2018-08-18T08:36:05.294Z,5.50
2018-08-18T08:38:45.161Z,4.97
2018-08-18T08:41:13.587Z,6.93
2018-08-18T08:43:42.032Z,4.77
2018-08-18T08:46:11.285Z,4.77
2018-08-18T08:48:39.712Z,5.50
2018-08-18T08:51:08.180Z,6.70
2018-08-18T08:53:36.700Z,6.00
2018-08-18T08:56:05.196Z,5.43
2018-08-18T08:58:36.773Z,5.43
2018-08-18T09:01:05.205Z,6.23
2018-08-18T09:03:34.796Z,5.40
2018-08-18T09:06:03.441Z,5.77
2018-08-18T09:08:31.897Z,4.47
2018-08-18T09:11:00.382Z,5.30
2018-08-18T09:13:28.849Z,6.97
2018-08-18T09:15:57.309Z,5.97
2018-08-18T09:18:25.788Z,5.23
2018-08-18T09:20:54.265Z,3.63
2018-08-18T09:23:23.256Z,4.23
2018-08-18T09:25:51.729Z,7.67
2018-08-18T09:28:20.168Z,6.67
2018-08-18T09:30:48.721Z,4.63
2018-08-18T09:33:17.156Z,6.37
2018-08-18T09:35:59.296Z,7.83
2018-08-18T09:38:27.777Z,6.23
2018-08-18T09:40:56.249Z,9.30
2018-08-18T09:43:25.857Z,5.80
2018-08-18T09:45:55.606Z,5.07
2018-08-18T09:48:25.340Z,6.93
2018-08-18T09:50:55.276Z,7.40
2018-08-18T09:53:23.771Z,5.97
2018-08-18T09:55:52.713Z,6.10
2018-08-18T09:58:21.172Z,5.47
2018-08-18T10:00:49.610Z,5.97
2018-08-18T10:03:18.130Z,8.40
2018-08-18T10:05:46.572Z,7.03
2018-08-18T10:08:15.054Z,5.20
2018-08-18T10:10:43.472Z,5.53
2018-08-18T10:13:11.965Z,7.43
2018-08-18T10:15:40.433Z,7.27
2018-08-18T10:18:09.254Z,4.63
2018-08-18T10:20:43.120Z,8.37
2018-08-18T10:23:11.958Z,5.50
2018-08-18T10:25:40.526Z,9.00
2018-08-18T10:28:09.057Z,6.40
2018-08-18T10:30:37.504Z,8.27
2018-08-18T10:33:06.093Z,7.87
2018-08-18T10:35:34.590Z,8.27
2018-08-18T10:38:04.513Z,7.27
2018-08-18T10:40:32.977Z,10.17
2018-08-18T10:43:01.471Z,12.40
2018-08-18T10:45:29.948Z,7.10
2018-08-18T10:47:58.387Z,6.07
2018-08-18T10:51:36.890Z,7.83
2018-08-18T10:54:05.379Z,5.00
2018-08-18T10:56:33.879Z,6.27
2018-08-18T10:59:20.294Z,8.93
2018-08-18T11:02:09.013Z,8.93
2018-08-18T11:04:38.067Z,5.83
2018-08-18T11:07:06.524Z,7.37
2018-08-18T11:09:34.996Z,9.03
2018-08-18T11:12:03.752Z,6.13
2018-08-18T11:14:32.201Z,4.70
2018-08-18T11:17:00.701Z,5.77
2018-08-18T11:19:29.182Z,5.53
2018-08-18T11:22:08.768Z,6.47
2018-08-18T11:24:37.212Z,5.13
2018-08-18T11:27:05.706Z,6.03
2018-08-18T11:29:34.137Z,7.37
2018-08-18T11:32:02.614Z,5.73
2018-08-18T11:34:31.069Z,6.07
2018-08-18T11:37:06.550Z,5.60
2018-08-18T11:39:34.996Z,6.30
2018-08-18T11:42:04.258Z,6.33
2018-08-18T11:44:32.687Z,6.33
2018-08-18T11:47:01.712Z,4.23
2018-08-18T11:49:30.109Z,3.30
2018-08-18T11:51:58.581Z,6.20
2018-08-18T11:54:27.134Z,4.07
2018-08-18T11:56:55.876Z,4.13
2018-08-18T11:59:24.408Z,5.23
2018-08-18T12:01:55.480Z,3.90
2018-08-18T12:04:24.273Z,6.47
2018-08-18T12:06:56.731Z,5.90
2018-08-18T12:09:25.264Z,4.23
2018-08-18T12:11:53.773Z,5.40
2018-08-18T12:14:22.586Z,4.67
2018-08-18T12:16:51.268Z,5.03
2018-08-18T12:19:19.900Z,3.80
2018-08-18T12:21:48.390Z,4.23
2018-08-18T12:24:19.448Z,7.77
2018-08-18T12:26:59.213Z,4.63
2018-08-18T12:29:30.750Z,4.73
2018-08-18T12:31:59.458Z,6.00
2018-08-18T12:34:27.896Z,6.23
2018-08-18T12:36:56.632Z,6.90
2018-08-18T12:39:24.950Z,6.13
2018-08-18T12:41:53.434Z,4.77
2018-08-18T12:44:26.109Z,4.47
2018-08-18T12:46:54.826Z,3.57
2018-08-18T12:49:23.380Z,5.00
2018-08-18T12:51:51.954Z,5.47
2018-08-18T12:54:20.505Z,4.13
2018-08-18T12:56:49.830Z,6.77
2018-08-18T12:59:18.350Z,9.50
2018-08-18T13:01:48.193Z,6.50
2018-08-18T13:04:18.298Z,4.23
2018-08-18T13:06:51.093Z,4.73
2018-08-18T13:09:27.167Z,4.50
2018-08-18T13:11:56.981Z,4.57
2018-08-18T13:14:27.292Z,6.67
2018-08-18T13:16:56.436Z,4.70
2018-08-18T13:19:26.801Z,4.33
2018-08-18T13:21:55.253Z,6.73
2018-08-18T13:24:23.826Z,4.83
2018-08-18T13:26:52.421Z,4.57
2018-08-18T13:29:20.985Z,4.63
2018-08-18T13:31:49.460Z,3.20
2018-08-18T13:34:19.484Z,4.67
2018-08-18T13:36:48.120Z,5.60
2018-08-18T13:39:19.461Z,4.47
2018-08-18T13:41:49.032Z,5.27
2018-08-18T13:44:25.193Z,5.03
2018-08-18T13:46:54.531Z,6.30
2018-08-18T13:49:24.325Z,4.23
2018-08-18T13:51:52.886Z,6.20
2018-08-18T13:54:21.411Z,6.67
2018-08-18T13:56:49.922Z,7.03
2018-08-18T13:59:44.761Z,5.50
2018-08-18T14:02:13.296Z,5.57
2018-08-18T14:04:42.732Z,6.97
2018-08-18T14:07:12.883Z,5.30
2018-08-18T14:09:43.538Z,7.33
2018-08-18T14:12:14.861Z,3.47
2018-08-18T14:14:43.513Z,6.80
2018-08-18T14:17:12.509Z,5.43
2018-08-18T14:19:40.998Z,4.67
2018-08-18T14:22:10.477Z,4.00
2018-08-18T14:24:40.107Z,8.40
2018-08-18T14:27:12.689Z,5.77
2018-08-18T14:29:41.305Z,5.97
2018-08-18T14:32:16.069Z,3.80
2018-08-18T14:34:52.062Z,3.27
2018-08-18T14:37:21.374Z,4.23
2018-08-18T14:39:49.873Z,3.00
2018-08-18T14:42:18.348Z,4.90
2018-08-18T14:44:46.883Z,4.97
2018-08-18T14:47:15.305Z,3.77
2018-08-18T14:49:43.806Z,6.67
2018-08-18T14:52:12.305Z,4.67
2018-08-18T14:54:40.777Z,4.83
2018-08-18T14:57:09.346Z,4.90
2018-08-18T14:59:38.417Z,2.93
2018-08-18T15:02:07.991Z,4.50
2018-08-18T15:04:36.571Z,5.00
2018-08-18T15:07:06.028Z,8.07
2018-08-18T15:09:43.673Z,3.40
2018-08-18T15:12:12.287Z,4.87
2018-08-18T15:14:40.782Z,3.30
2018-08-18T15:17:09.273Z,4.13
2018-08-18T15:19:38.091Z,2.97
2018-08-18T15:22:11.363Z,4.73
2018-08-18T15:24:40.068Z,5.03
2018-08-18T15:27:09.148Z,5.80
2018-08-18T15:29:37.645Z,6.90
2018-08-18T15:32:06.435Z,6.90
2018-08-18T15:34:34.941Z,4.40
2018-08-18T15:37:03.977Z,3.47
2018-08-18T15:39:32.626Z,3.63
2018-08-18T15:42:01.782Z,5.90
2018-08-18T15:44:30.343Z,2.73
2018-08-18T15:46:59.409Z,4.33
2018-08-18T15:49:27.875Z,6.20
2018-08-18T15:51:56.526Z,4.93
2018-08-18T15:54:25.537Z,5.40
2018-08-18T15:56:53.964Z,4.23
2018-08-18T15:59:22.425Z,3.90
2018-08-18T16:01:51.005Z,3.20
2018-08-18T16:04:19.478Z,4.90
2018-08-18T16:06:47.969Z,4.37
2018-08-18T16:09:16.437Z,4.90
2018-08-18T16:11:44.981Z,7.37
2018-08-18T16:14:13.441Z,3.90
2018-08-18T16:16:56.300Z,4.23
2018-08-18T16:19:25.274Z,4.53
2018-08-18T16:21:54.064Z,3.80
2018-08-18T16:24:31.941Z,6.77
2018-08-18T16:27:02.291Z,3.17
2018-08-18T16:29:30.886Z,5.47
2018-08-18T16:32:13.364Z,6.30
2018-08-18T16:34:43.736Z,4.43
2018-08-18T16:37:12.352Z,4.90
2018-08-18T16:39:41.671Z,7.90
2018-08-18T16:42:11.188Z,5.70
2018-08-18T16:44:40.941Z,6.27
2018-08-18T16:47:09.686Z,3.27
2018-08-18T16:49:38.247Z,3.80
2018-08-18T16:52:06.733Z,4.70
2018-08-18T16:54:35.193Z,5.93
2018-08-18T16:57:03.734Z,3.67
2018-08-18T16:59:35.644Z,4.90
2018-08-18T17:02:05.049Z,5.73
2018-08-18T17:04:34.904Z,6.40
2018-08-18T17:07:08.507Z,3.83
2018-08-18T17:09:41.867Z,5.87
2018-08-18T17:12:17.641Z,5.23
2018-08-18T17:14:46.290Z,6.10
2018-08-18T17:17:14.862Z,2.33
2018-08-18T17:19:43.419Z,3.57
2018-08-18T17:22:13.685Z,4.93
2018-08-18T17:24:42.173Z,4.07
2018-08-18T17:27:10.744Z,5.13
2018-08-18T17:29:40.594Z,5.63
2018-08-18T17:32:09.655Z,6.13
2018-08-18T17:34:38.329Z,4.67
2018-08-18T17:37:07.217Z,4.23
2018-08-18T17:39:37.334Z,3.77
2018-08-18T17:42:05.915Z,3.37
2018-08-18T17:44:34.529Z,4.30
2018-08-18T17:47:05.263Z,2.40
2018-08-18T17:49:43.377Z,4.47
2018-08-18T17:52:12.020Z,5.87
2018-08-18T17:54:40.551Z,3.63
2018-08-18T17:57:09.485Z,5.63
2018-08-18T17:59:38.137Z,5.83
2018-08-18T18:02:11.845Z,3.50
2018-08-18T18:04:40.397Z,4.07
2018-08-18T18:07:10.159Z,4.77
2018-08-18T18:09:38.721Z,4.43
2018-08-18T18:12:24.748Z,6.40
2018-08-18T18:14:54.253Z,5.73
2018-08-18T18:17:23.521Z,6.17
2018-08-18T18:19:53.241Z,8.50
2018-08-18T18:22:21.747Z,7.43
2018-08-18T18:24:50.588Z,6.50
2018-08-18T18:27:19.377Z,6.60
2018-08-18T18:29:47.876Z,5.00
2018-08-18T18:32:16.373Z,6.47
2018-08-18T18:34:47.242Z,4.10
2018-08-18T18:37:15.924Z,3.83
2018-08-18T18:39:53.660Z,6.90
2018-08-18T18:42:22.229Z,3.77
2018-08-18T18:44:50.677Z,5.73
2018-08-18T18:47:19.168Z,7.73
2018-08-18T18:49:47.724Z,5.43
2018-08-18T18:52:16.193Z,7.20
2018-08-18T18:54:44.660Z,7.47
2018-08-18T18:57:13.420Z,6.37
2018-08-18T18:59:47.213Z,7.50
2018-08-18T19:02:15.999Z,6.00
2018-08-18T19:04:44.503Z,7.77
2018-08-18T19:07:13.022Z,3.70
2018-08-18T19:09:41.513Z,7.83
2018-08-18T19:12:09.976Z,6.83
2018-08-18T19:14:38.429Z,8.10
2018-08-18T19:17:06.920Z,8.27
2018-08-18T19:19:35.365Z,5.70
2018-08-18T19:22:07.167Z,6.37
2018-08-18T19:24:35.613Z,4.67
2018-08-18T19:27:04.113Z,5.30
2018-08-18T19:29:32.576Z,9.07
2018-08-18T19:32:01.476Z,9.00
2018-08-18T19:34:30.021Z,7.73
2018-08-18T19:37:01.115Z,9.30
2018-08-18T19:39:30.570Z,6.33
2018-08-18T19:42:09.252Z,6.60
2018-08-18T19:44:41.579Z,7.00
2018-08-18T19:47:10.077Z,8.73
2018-08-18T19:49:42.828Z,6.13
2018-08-18T19:52:15.624Z,8.67
2018-08-18T19:54:48.364Z,6.63
2018-08-18T19:57:22.601Z,8.87
2018-08-18T19:59:51.915Z,8.60
2018-08-18T20:02:20.624Z,10.03
2018-08-18T20:04:49.860Z,6.10
2018-08-18T20:07:18.859Z,5.60
2018-08-18T20:09:47.563Z,5.93
2018-08-18T20:12:16.034Z,5.30
2018-08-18T20:14:44.483Z,6.10
2018-08-18T20:17:12.961Z,9.47
2018-08-18T20:19:41.400Z,7.50
2018-08-18T20:22:14.665Z,9.57
2018-08-18T20:24:43.183Z,10.67
2018-08-18T20:27:11.620Z,10.03
2018-08-18T20:29:40.060Z,9.17
2018-08-18T20:32:08.577Z,8.90
2018-08-18T20:34:37.891Z,7.47
2018-08-18T20:37:06.450Z,8.07
2018-08-18T20:39:34.919Z,8.60
2018-08-18T20:42:03.367Z,8.70
2018-08-18T20:44:31.813Z,6.33
2018-08-18T20:47:00.261Z,5.70
2018-08-18T20:49:28.725Z,6.70
2018-08-18T20:51:57.231Z,9.17
2018-08-18T20:54:25.682Z,9.13
2018-08-18T20:56:54.128Z,8.23
2018-08-18T20:59:22.588Z,7.50
2018-08-18T21:01:51.012Z,9.13
2018-08-18T21:04:19.513Z,8.33
2018-08-18T21:06:47.949Z,8.33
2018-08-18T21:09:27.498Z,6.87
2018-08-18T21:11:55.986Z,12.10
2018-08-18T21:14:27.260Z,11.73
2018-08-18T21:16:56.253Z,7.70
2018-08-18T21:19:25.689Z,8.77
2018-08-18T21:21:55.452Z,10.27
2018-08-18T21:24:23.932Z,12.07
2018-08-18T21:26:52.420Z,11.97
2018-08-18T21:29:23.796Z,8.67
2018-08-18T21:31:52.299Z,9.10
2018-08-18T21:34:20.736Z,8.03
2018-08-18T21:36:49.184Z,11.10
2018-08-18T21:39:17.618Z,10.40
2018-08-18T21:41:47.334Z,9.83
2018-08-18T21:44:16.188Z,7.77
2018-08-18T21:46:45.000Z,7.87
2018-08-18T21:49:14.069Z,13.17
2018-08-18T21:51:42.522Z,9.90
2018-08-18T21:54:10.940Z,9.60
2018-08-18T21:56:41.687Z,10.13
2018-08-18T21:59:11.484Z,11.83
2018-08-18T22:01:40.116Z,10.10
2018-08-18T22:04:09.396Z,8.87
2018-08-18T22:06:37.941Z,9.90
2018-08-18T22:09:21.977Z,10.20
2018-08-18T22:11:50.713Z,11.63
2018-08-18T22:14:19.458Z,11.77
2018-08-18T22:16:56.973Z,11.47
2018-08-18T22:19:26.379Z,11.73
2018-08-18T22:21:54.881Z,12.63
2018-08-18T22:24:23.432Z,11.03
2018-08-18T22:26:51.956Z,13.53
2018-08-18T22:29:24.680Z,12.60
2018-08-18T22:31:53.327Z,11.93
2018-08-18T22:34:21.801Z,9.37
2018-08-18T22:36:50.380Z,12.53
2018-08-18T22:39:18.841Z,9.40
2018-08-18T22:41:47.272Z,11.80
2018-08-18T22:44:15.764Z,11.80
2018-08-18T22:46:44.213Z,11.03
2018-08-18T22:49:12.685Z,9.87
2018-08-18T22:51:41.133Z,10.97
2018-08-18T22:54:09.581Z,10.37
2018-08-18T22:56:38.661Z,13.00
2018-08-18T22:59:08.326Z,13.73
2018-08-18T23:01:38.593Z,12.03
2018-08-18T23:04:40.211Z,10.77
2018-08-18T23:07:09.029Z,13.47
2018-08-18T23:09:37.530Z,12.93
2018-08-18T23:12:07.156Z,8.37
2018-08-18T23:14:37.230Z,12.60
2018-08-18T23:17:06.868Z,11.10
2018-08-18T23:19:35.300Z,13.80
2018-08-18T23:22:03.861Z,13.23
2018-08-18T23:24:33.897Z,13.23
2018-08-18T23:27:03.075Z,11.20
2018-08-18T23:29:31.704Z,14.00
2018-08-18T23:32:03.017Z,14.80
2018-08-18T23:34:31.481Z,11.33
2018-08-18T23:37:00.041Z,14.77
2018-08-18T23:39:28.482Z,13.10
2018-08-18T23:42:30.720Z,11.80
2018-08-18T23:44:59.161Z,12.00
2018-08-18T23:47:27.619Z,17.80
2018-08-18T23:49:56.102Z,15.17
2018-08-18T23:52:24.596Z,16.53
2018-08-18T23:54:53.101Z,13.07
2018-08-18T23:57:21.580Z,12.67
2018-08-18T23:59:50.745Z,16.40
